Time;durP1;ratioP1;P1;durP2;ratioP2;P2;SDS_P1;SDS_P2;PMS_P1;PMS_P2;Temp;Humidity;BMP_temperature;BMP_pressure;BME280_temperature;BME280_humidity;BME280_pressure;Samples;Min_cycle;Max_cycle;Signal;HPM_P1;HPM_P2
2023/08/05 00:01:12;;;;;;;5.78;2.55;;;;;;;18.53;62.36;100553.41;4159339;28;20037;-64
2023/08/05 00:03:15;;;;;;;3.95;2.70;;;;;;;18.51;61.83;100549.94;4155979;28;20045;-65
2023/08/05 00:05:18;;;;;;;6.82;2.70;;;;;;;18.52;61.83;100546.44;4144042;28;20114;-65
2023/08/05 00:07:22;;;;;;;5.10;2.63;;;;;;;18.45;61.69;100556.19;4160909;28;20465;-65
2023/08/05 00:09:25;;;;;;;4.05;2.50;;;;;;;18.46;61.83;100553.53;4143220;28;20038;-65
2023/08/05 00:11:29;;;;;;;7.78;2.67;;;;;;;18.35;62.31;100555.44;4160519;28;20037;-64
2023/08/05 00:13:34;;;;;;;4.03;2.78;;;;;;;18.35;62.20;100558.09;4144252;28;20065;-65
2023/08/05 00:15:37;;;;;;;4.85;2.65;;;;;;;18.34;62.36;100556.38;4141506;28;20049;-65
2023/08/05 00:17:40;;;;;;;4.32;2.30;;;;;;;18.29;62.71;100547.66;4160610;28;20080;-65
2023/08/05 00:19:42;;;;;;;5.18;2.45;;;;;;;18.25;62.71;100549.50;4143055;28;20519;-64
2023/08/05 00:21:45;;;;;;;3.47;2.50;;;;;;;18.22;62.55;100549.50;4159173;28;20121;-64
2023/08/05 00:23:48;;;;;;;8.00;3.15;;;;;;;18.26;62.40;100552.97;4160885;28;20064;-64
2023/08/05 00:25:51;;;;;;;3.20;2.22;;;;;;;18.30;62.54;100557.31;4160618;28;20495;-64
2023/08/05 00:27:55;;;;;;;4.50;2.50;;;;;;;18.20;62.85;100556.56;4159813;28;20045;-65
2023/08/05 00:29:58;;;;;;;3.50;2.15;;;;;;;18.16;63.23;100548.75;4156670;28;20132;-65
2023/08/05 00:32:00;;;;;;;5.20;2.75;;;;;;;18.14;63.25;100552.28;4141177;28;20061;-65
2023/08/05 00:34:03;;;;;;;4.30;2.40;;;;;;;18.17;63.24;100550.50;4140158;28;20038;-65
2023/08/05 00:36:06;;;;;;;3.63;2.45;;;;;;;18.13;63.82;100562.81;4142866;28;20480;-65
2023/08/05 00:38:09;;;;;;;4.65;2.17;;;;;;;18.06;64.44;100558.56;4142565;28;20092;-65
2023/08/05 00:40:12;;;;;;;4.43;2.47;;;;;;;18.03;64.47;100563.84;4117171;28;20082;-65
2023/08/05 00:42:18;;;;;;;4.05;2.42;;;;;;;18.01;64.62;100571.78;4157807;28;20041;-64
2023/08/05 00:44:24;;;;;;;8.85;3.20;;;;;;;18.02;64.37;100563.00;4157702;28;20132;-64
2023/08/05 00:46:27;;;;;;;6.85;3.47;;;;;;;18.01;64.24;100568.28;4143165;28;20120;-64
2023/08/05 00:48:30;;;;;;;7.07;3.33;;;;;;;17.99;64.50;100575.31;4160415;28;20046;-64
2023/08/05 00:50:36;;;;;;;6.97;2.60;;;;;;;17.96;64.44;100571.84;4160108;28;20577;-65
2023/08/05 00:52:39;;;;;;;4.68;2.88;;;;;;;17.95;64.79;100574.50;4142193;28;20038;-64
2023/08/05 00:54:44;;;;;;;4.07;2.50;;;;;;;17.95;64.46;100579.75;4143563;28;20384;-64
2023/08/05 00:56:47;;;;;;;2.95;2.17;;;;;;;17.92;65.48;100575.41;4140625;28;20046;-64
2023/08/05 00:58:50;;;;;;;4.88;2.58;;;;;;;17.89;65.77;100572.78;4142516;28;20492;-65
2023/08/05 01:00:53;;;;;;;5.72;2.63;;;;;;;17.81;66.48;100579.91;4142413;28;20061;-65
2023/08/05 01:02:57;;;;;;;7.78;2.63;;;;;;;17.76;66.41;100572.09;4144183;28;20058;-65
2023/08/05 01:05:00;;;;;;;3.28;1.85;;;;;;;17.72;66.60;100567.75;4129519;28;20042;-65
2023/08/05 01:07:03;;;;;;;4.75;2.60;;;;;;;17.73;66.72;100566.88;4161438;28;20077;-65
2023/08/05 01:09:07;;;;;;;8.45;3.85;;;;;;;17.74;65.89;100559.84;4146145;28;20065;-65
2023/08/05 01:11:11;;;;;;;5.53;3.10;;;;;;;17.72;65.61;100548.50;4131175;28;20034;-65
2023/08/05 01:13:13;;;;;;;6.63;2.63;;;;;;;17.70;65.75;100547.66;4146908;28;20229;-65
2023/08/05 01:15:16;;;;;;;5.85;2.90;;;;;;;17.72;65.08;100546.72;4145458;28;20077;-64
2023/08/05 01:17:21;;;;;;;5.10;2.70;;;;;;;17.70;65.33;100553.78;4139447;28;20516;-65
2023/08/05 01:19:27;;;;;;;4.88;2.80;;;;;;;17.72;64.88;100554.59;4146838;28;20065;-65
2023/08/05 01:21:39;;;;;;;3.55;2.28;;;;;;;17.68;64.61;100552.06;4160972;28;20124;-65
2023/08/05 01:23:51;;;;;;;3.95;2.30;;;;;;;17.61;64.97;100540.75;4146143;28;20065;-65
2023/08/05 01:25:56;;;;;;;4.72;2.75;;;;;;;17.61;65.09;100540.75;4146154;28;20397;-65
2023/08/05 01:28:02;;;;;;;;;;;;;;;17.47;65.68;100537.44;4146422;28;20034;-65
2023/08/05 01:30:06;;;;;;;5.28;2.35;;;;;;;17.48;65.83;100547.03;4161450;28;19928;-65
2023/08/05 01:32:09;;;;;;;3.80;2.50;;;;;;;17.55;65.36;100543.44;4129714;28;20054;-65
2023/08/05 01:34:13;;;;;;;7.18;2.85;;;;;;;17.53;65.55;100537.34;4163426;28;20037;-65
2023/08/05 01:36:20;;;;;;;6.53;2.88;;;;;;;17.61;65.19;100546.88;4163225;28;20124;-65
2023/08/05 01:38:24;;;;;;;3.17;2.13;;;;;;;17.54;65.48;100545.22;4163391;28;20526;-65
2023/08/05 01:40:28;;;;;;;6.80;3.00;;;;;;;17.53;65.17;100538.22;4129499;28;20129;-65
2023/08/05 01:42:33;;;;;;;4.47;2.28;;;;;;;17.55;65.25;100540.81;4144820;28;20876;-65
2023/08/05 01:44:36;;;;;;;5.03;2.60;;;;;;;17.52;65.46;100552.28;4143705;28;20041;-65
2023/08/05 01:46:39;;;;;;;5.53;2.90;;;;;;;17.50;65.64;100548.78;4145415;28;20409;-65
2023/08/05 01:48:41;;;;;;;5.68;2.20;;;;;;;17.48;65.74;100550.56;4142949;28;20038;-65
2023/08/05 01:50:44;;;;;;;4.80;2.42;;;;;;;17.49;65.33;100551.44;4148070;28;20129;-65
2023/08/05 01:52:47;;;;;;;6.13;2.58;;;;;;;17.51;65.36;100545.25;4144325;28;20584;-65
2023/08/05 01:54:50;;;;;;;5.70;3.03;;;;;;;17.53;65.18;100540.00;4145196;28;20152;-65
2023/08/05 01:56:53;;;;;;;5.75;2.72;;;;;;;17.52;65.09;100540.88;4129018;28;20038;-65
2023/08/05 01:58:56;;;;;;;5.68;2.30;;;;;;;17.44;65.24;100531.31;4159997;28;20041;-65
2023/08/05 02:00:59;;;;;;;4.05;2.00;;;;;;;17.39;65.71;100537.53;4142363;28;20038;-65
2023/08/05 02:03:02;;;;;;;4.68;2.40;;;;;;;17.34;66.10;100532.31;4129231;28;20047;-65
2023/08/05 02:05:06;;;;;;;3.47;2.20;;;;;;;17.31;66.56;100537.63;4145394;28;20038;-65
2023/08/05 02:07:09;;;;;;;4.47;2.53;;;;;;;17.30;66.49;100535.88;4158326;28;20530;-65
2023/08/05 02:09:12;;;;;;;5.57;2.95;;;;;;;17.31;66.48;100539.41;4159229;28;20124;-65
2023/08/05 02:11:14;;;;;;;4.93;2.20;;;;;;;17.30;66.28;100541.13;4144606;28;20459;-65
2023/08/05 02:13:17;;;;;;;5.93;2.80;;;;;;;17.34;66.42;100534.09;4145479;28;20045;-65
2023/08/05 02:15:21;;;;;;;7.97;3.13;;;;;;;17.36;66.05;100538.47;4144590;28;20033;-65
2023/08/05 02:17:24;;;;;;;5.78;2.95;;;;;;;17.38;65.65;100539.28;4145787;28;20121;-66
2023/08/05 02:19:27;;;;;;;6.57;3.58;;;;;;;17.43;65.00;100540.13;4161870;28;20517;-65
2023/08/05 02:21:30;;;;;;;8.27;3.63;;;;;;;17.31;65.56;100539.41;4159304;28;20060;-66
2023/08/05 02:23:33;;;;;;;6.13;3.00;;;;;;;17.21;65.78;100541.25;4145444;28;20033;-65
2023/08/05 02:25:36;;;;;;;5.40;2.92;;;;;;;17.18;66.05;100536.91;4159095;28;20041;-65
2023/08/05 02:27:38;;;;;;;6.25;2.92;;;;;;;17.18;66.15;100536.03;4145457;28;20132;-65
2023/08/05 02:29:41;;;;;;;6.75;2.85;;;;;;;17.11;66.30;100537.84;4162176;28;20057;-65
2023/08/05 02:31:45;;;;;;;7.68;3.30;;;;;;;17.12;66.61;100536.13;4127429;28;20471;-65
2023/08/05 02:34:06;;;;;;;6.50;3.00;;;;;;;17.05;66.58;100530.91;4147133;28;20052;-65
2023/08/05 02:36:09;;;;;;;6.35;2.88;;;;;;;17.05;66.87;100528.28;4161754;28;20141;-65
2023/08/05 02:38:12;;;;;;;6.05;3.15;;;;;;;17.07;66.92;100526.53;4142512;28;20034;-65
2023/08/05 02:40:15;;;;;;;7.93;3.53;;;;;;;17.07;66.77;100523.91;4143111;28;20056;-65
2023/08/05 02:42:18;;;;;;;4.57;2.42;;;;;;;17.10;66.92;100520.38;4143868;28;20484;-65
2023/08/05 02:44:21;;;;;;;5.80;2.97;;;;;;;17.06;66.94;100519.53;4145252;28;20121;-65
2023/08/05 02:46:24;;;;;;;8.57;3.25;;;;;;;17.04;67.02;100508.19;4159481;28;20487;-65
2023/08/05 02:48:28;;;;;;;8.25;2.90;;;;;;;17.04;66.97;100517.81;4145137;28;20045;-65
2023/08/05 02:50:31;;;;;;;7.32;3.10;;;;;;;17.04;67.14;100515.19;4144937;28;20100;-65
2023/08/05 02:52:33;;;;;;;4.75;2.80;;;;;;;17.01;67.12;100505.59;4144048;28;20056;-65
2023/08/05 02:54:36;;;;;;;6.18;2.85;;;;;;;17.01;67.13;100512.59;4162513;28;20062;-65
2023/08/05 02:56:39;;;;;;;8.00;3.20;;;;;;;16.96;67.21;100514.41;4143589;28;20118;-65
2023/08/05 02:58:42;;;;;;;5.85;3.03;;;;;;;16.97;67.39;100506.50;4143830;28;20520;-65
2023/08/05 03:00:46;;;;;;;6.05;2.85;;;;;;;16.93;67.50;100502.19;4146986;28;20067;-65
2023/08/05 03:02:51;;;;;;;6.72;2.90;;;;;;;16.91;67.65;100503.97;4143506;28;20041;-65
2023/08/05 03:04:55;;;;;;;6.57;3.00;;;;;;;16.90;67.69;100500.44;4144061;28;20045;-65
2023/08/05 03:06:58;;;;;;;9.40;2.60;;;;;;;16.88;68.09;100506.59;4143794;28;20121;-65
2023/08/05 03:09:00;;;;;;;7.68;4.38;;;;;;;16.85;68.26;100502.25;4159736;28;20052;-65
2023/08/05 03:11:05;;;;;;;4.68;2.65;;;;;;;16.87;68.55;100504.84;4145140;28;20046;-65
2023/08/05 03:13:09;;;;;;;7.88;3.40;;;;;;;16.82;68.88;100493.50;4145223;28;20041;-65
2023/08/05 03:15:13;;;;;;;4.65;2.75;;;;;;;16.80;68.93;100492.66;4144857;28;20092;-65
2023/08/05 03:17:16;;;;;;;7.97;3.40;;;;;;;16.81;68.80;100491.78;4144433;28;20042;-65
2023/08/05 03:19:19;;;;;;;8.93;3.75;;;;;;;16.76;68.99;100483.94;4144400;28;21289;-65
2023/08/05 03:21:24;;;;;;;11.07;4.22;;;;;;;16.78;68.86;100489.19;4144252;28;20225;-65
2023/08/05 03:23:27;;;;;;;6.70;3.80;;;;;;;16.75;69.14;100503.22;4158561;28;20033;-65
2023/08/05 03:25:31;;;;;;;9.27;4.07;;;;;;;16.73;69.09;100508.50;4144372;28;20034;-65
2023/08/05 03:27:37;;;;;;;9.02;3.78;;;;;;;16.73;69.18;100516.38;4126245;28;20105;-65
2023/08/05 03:29:41;;;;;;;7.47;3.38;;;;;;;16.74;69.21;100517.22;4160532;28;20033;-65
2023/08/05 03:31:46;;;;;;;6.57;2.70;;;;;;;16.71;69.50;100510.25;4140969;28;20052;-65
2023/08/05 03:33:49;;;;;;;7.70;3.50;;;;;;;16.71;69.79;100514.63;4142219;28;20492;-65
2023/08/05 03:35:53;;;;;;;7.15;3.75;;;;;;;16.67;69.60;100523.44;4120087;28;20094;-65
2023/08/05 03:37:59;;;;;;;7.65;3.58;;;;;;;16.61;69.65;100521.72;4158659;28;20037;-65
2023/08/05 03:40:04;;;;;;;7.43;3.72;;;;;;;16.56;69.80;100521.78;4143779;28;20042;-65
2023/08/05 03:42:07;;;;;;;7.18;3.70;;;;;;;16.52;69.87;100525.31;4143836;28;20080;-65
2023/08/05 03:44:10;;;;;;;6.80;3.53;;;;;;;16.51;70.10;100522.69;4161136;28;20045;-65
2023/08/05 03:46:12;;;;;;;5.72;3.75;;;;;;;16.50;70.03;100534.06;4143261;28;20041;-65
2023/08/05 03:48:15;;;;;;;7.95;4.00;;;;;;;16.47;70.18;100534.09;4128035;28;20042;-65
2023/08/05 03:50:19;;;;;;;5.30;3.20;;;;;;;16.44;70.23;100539.38;4147313;28;20077;-65
2023/08/05 03:52:21;;;;;;;7.57;3.92;;;;;;;16.43;70.21;100548.13;4128017;28;20093;-65
2023/08/05 03:54:26;;;;;;;8.30;3.72;;;;;;;16.40;70.44;100542.03;4126940;28;20046;-65
2023/08/05 03:56:28;;;;;;;6.70;3.40;;;;;;;16.34;70.41;100525.47;4142588;28;20403;-65
2023/08/05 03:58:33;;;;;;;8.60;3.78;;;;;;;16.33;70.47;100535.09;4124449;28;20038;-65
2023/08/05 04:00:36;;;;;;;7.25;3.58;;;;;;;16.32;70.64;100543.84;4142916;28;20128;-65
2023/08/05 04:02:40;;;;;;;8.60;3.90;;;;;;;16.33;70.55;100552.59;4142790;28;20179;-65
2023/08/05 04:04:43;;;;;;;7.50;3.70;;;;;;;16.30;70.71;100566.59;4160825;28;20129;-65
2023/08/05 04:06:46;;;;;;;6.65;3.70;;;;;;;16.32;70.83;100556.09;4142688;28;20586;-65
2023/08/05 04:08:53;;;;;;;5.80;3.63;;;;;;;16.28;70.94;100557.91;4135003;28;20039;-65
2023/08/05 04:10:58;;;;;;;6.15;4.15;;;;;;;16.24;70.81;100564.03;4143212;28;20487;-65
2023/08/05 04:13:03;;;;;;;7.38;3.70;;;;;;;16.23;70.88;100572.78;4143951;28;20066;-65
2023/08/05 04:15:08;;;;;;;8.43;3.35;;;;;;;16.22;71.01;100576.28;4135223;28;20124;-65
2023/08/05 04:17:14;;;;;;;7.32;3.10;;;;;;;16.23;71.00;100585.91;4143121;28;20073;-65
2023/08/05 04:19:18;;;;;;;5.57;3.13;;;;;;;16.26;71.37;100580.63;4143002;28;20483;-64
2023/08/05 04:21:23;;;;;;;5.05;3.22;;;;;;;16.26;71.28;100585.88;4140711;28;20041;-65
2023/08/05 04:23:29;;;;;;;;;;;;;;;16.18;71.55;100587.69;4127522;28;20081;-65
2023/08/05 04:25:32;;;;;;;4.97;3.30;;;;;;;16.16;71.58;100590.31;4139832;28;20012;-65
2023/08/05 04:27:37;;;;;;;4.35;2.80;;;;;;;16.22;71.46;100592.00;4157762;28;20054;-65
2023/08/05 04:29:41;;;;;;;5.35;3.38;;;;;;;16.25;71.36;100597.25;4159512;28;20140;-65
2023/08/05 04:31:44;;;;;;;8.30;3.63;;;;;;;16.22;71.74;100589.38;4143654;28;20037;-65
2023/08/05 04:33:48;;;;;;;6.97;3.25;;;;;;;16.23;71.63;100586.75;4142831;28;20204;-65
2023/08/05 04:35:50;;;;;;;5.78;3.00;;;;;;;16.26;71.62;100585.88;4159652;28;20061;-65
2023/08/05 04:37:52;;;;;;;11.25;3.92;;;;;;;16.29;71.43;100587.59;4160078;28;20052;-65
2023/08/05 04:39:55;;;;;;;5.72;3.28;;;;;;;16.28;71.72;100578.88;4142101;28;20084;-65
2023/08/05 04:41:58;;;;;;;4.90;3.10;;;;;;;16.29;71.85;100585.84;4139997;28;20084;-65
2023/08/05 04:44:02;;;;;;;8.10;3.22;;;;;;;16.26;72.31;100585.00;4159813;28;20045;-65
2023/08/05 04:46:05;;;;;;;7.05;2.90;;;;;;;16.25;72.23;100581.50;4142650;28;20038;-65
2023/08/05 04:48:08;;;;;;;5.22;3.45;;;;;;;16.18;72.29;100591.19;4159441;28;20565;-65
2023/08/05 04:50:10;;;;;;;7.22;2.85;;;;;;;16.17;72.28;100586.81;4159150;28;20037;-65
2023/08/05 04:52:14;;;;;;;9.20;3.10;;;;;;;16.19;72.33;100585.06;4155228;28;20033;-64
2023/08/05 04:54:17;;;;;;;9.57;3.15;;;;;;;16.20;72.28;100591.16;4155133;28;20422;-65
2023/08/05 04:56:24;;;;;;;6.97;3.00;;;;;;;16.23;72.30;100591.16;4159434;28;20047;-65
2023/08/05 04:58:28;;;;;;;7.07;3.03;;;;;;;16.24;72.42;100592.91;4142053;28;20073;-65
2023/08/05 05:00:32;;;;;;;6.68;3.33;;;;;;;16.28;71.90;100589.38;4160275;28;20041;-65
2023/08/05 05:02:34;;;;;;;6.60;3.50;;;;;;;16.32;72.28;100590.22;4159234;28;20033;-65
2023/08/05 05:04:37;;;;;;;4.80;2.85;;;;;;;16.34;72.46;100583.19;4159535;28;20052;-64
2023/08/05 05:06:40;;;;;;;6.90;3.33;;;;;;;16.34;72.57;100584.06;4157714;28;20434;-64
2023/08/05 05:08:43;;;;;;;6.30;3.17;;;;;;;16.34;72.43;100581.44;4136326;28;20524;-65
2023/08/05 05:10:46;;;;;;;3.65;2.22;;;;;;;16.36;72.40;100581.44;4159476;28;20475;-65
2023/08/05 05:12:49;;;;;;;5.95;2.65;;;;;;;16.39;72.21;100579.66;4159102;28;20121;-65
2023/08/05 05:14:52;;;;;;;3.77;2.57;;;;;;;16.39;72.36;100582.25;4159649;28;20033;-64
2023/08/05 05:16:56;;;;;;;5.30;2.85;;;;;;;16.39;72.35;100577.03;4159378;28;20299;-64
2023/08/05 05:18:59;;;;;;;5.07;2.83;;;;;;;16.40;72.15;100575.28;4156496;28;20038;-64
2023/08/05 05:21:02;;;;;;;6.70;3.17;;;;;;;16.43;72.02;100574.38;4157917;28;20046;-64
2023/08/05 05:23:05;;;;;;;7.97;2.80;;;;;;;16.45;72.16;100572.63;4160198;28;20072;-65
2023/08/05 05:25:08;;;;;;;5.10;2.70;;;;;;;16.48;72.13;100576.06;4160179;28;20464;-65
2023/08/05 05:27:13;;;;;;;8.45;3.05;;;;;;;16.52;71.95;100572.53;4158093;28;20056;-65
2023/08/05 05:29:19;;;;;;;7.80;3.03;;;;;;;16.55;72.13;100577.78;4157475;28;20040;-66
2023/08/05 05:31:22;;;;;;;8.52;3.17;;;;;;;16.60;72.46;100569.00;4155448;28;20041;-65
2023/08/05 05:33:27;;;;;;;6.00;2.50;;;;;;;16.64;72.33;100571.56;4159920;28;20037;-65
2023/08/05 05:35:30;;;;;;;7.95;3.15;;;;;;;16.66;72.34;100580.31;4158128;28;20049;-65
2023/08/05 05:37:33;;;;;;;6.57;2.78;;;;;;;16.70;72.23;100576.75;4155971;28;20444;-65
2023/08/05 05:39:36;;;;;;;7.53;3.28;;;;;;;16.73;72.13;100579.38;4154859;28;20056;-66
2023/08/05 05:41:38;;;;;;;9.93;3.15;;;;;;;16.79;72.11;100578.41;4157635;28;20435;-65
2023/08/05 05:43:40;;;;;;;7.10;2.92;;;;;;;16.83;72.17;100571.41;4158897;28;20037;-65
2023/08/05 05:45:43;;;;;;;7.68;2.95;;;;;;;16.85;72.02;100565.25;4141118;28;20427;-65
2023/08/05 05:47:47;;;;;;;4.95;3.03;;;;;;;16.89;71.68;100567.00;4144980;28;20038;-66
2023/08/05 05:49:52;;;;;;;10.07;4.00;;;;;;;16.93;71.06;100573.09;4161483;28;20439;-66
2023/08/05 05:51:55;;;;;;;5.72;3.08;;;;;;;16.96;71.11;100562.53;4160779;28;20037;-65
2023/08/05 05:53:58;;;;;;;7.22;3.63;;;;;;;17.02;70.40;100565.09;4162974;28;20554;-65
2023/08/05 05:56:01;;;;;;;11.73;3.90;;;;;;;17.07;70.85;100565.94;4148390;28;20121;-65
2023/08/05 05:58:04;;;;;;;7.18;4.50;;;;;;;17.11;70.14;100561.50;4143592;28;20034;-65
2023/08/05 06:00:08;;;;;;;8.00;4.40;;;;;;;17.19;69.90;100566.69;4161500;28;20037;-65
2023/08/05 06:02:14;;;;;;;8.48;4.40;;;;;;;17.24;69.79;100563.13;4143604;28;20046;-66
2023/08/05 06:04:18;;;;;;;9.93;4.00;;;;;;;17.31;69.87;100565.66;4159261;28;20043;-66
2023/08/05 06:06:26;;;;;;;12.02;5.47;;;;;;;17.39;69.81;100563.81;4158688;28;20037;-70
2023/08/05 06:08:28;;;;;;;8.15;3.67;;;;;;;17.39;69.30;100572.56;4160718;28;20038;-64
2023/08/05 06:10:36;;;;;;;10.50;5.00;;;;;;;17.42;69.38;100569.91;4143740;28;20196;-71
2023/08/05 06:12:39;;;;;;;7.82;4.45;;;;;;;17.51;69.29;100565.41;4162859;28;20041;-75
2023/08/05 06:14:42;;;;;;;6.15;4.32;;;;;;;17.55;69.17;100570.63;4143753;28;20129;-73
2023/08/05 06:16:44;;;;;;;8.73;4.07;;;;;;;17.60;68.96;100573.19;4158659;28;20047;-75
2023/08/05 06:18:47;;;;;;;7.35;3.55;;;;;;;17.66;69.35;100570.47;4128635;28;20562;-69
2023/08/05 06:20:50;;;;;;;5.38;3.60;;;;;;;17.69;69.26;100562.53;4144005;28;20488;-62
2023/08/05 06:22:54;;;;;;;7.35;3.55;;;;;;;17.73;69.10;100559.00;4160242;28;20033;-63
2023/08/05 06:24:57;;;;;;;9.23;4.50;;;;;;;17.76;68.91;100556.31;4156831;28;20155;-61
2023/08/05 06:27:00;;;;;;;11.95;4.30;;;;;;;17.83;68.57;100556.22;4157671;28;20076;-61
2023/08/05 06:29:03;;;;;;;7.78;5.00;;;;;;;17.89;68.46;100550.91;4159742;28;20041;-62
2023/08/05 06:31:06;;;;;;;9.90;4.65;;;;;;;17.93;68.90;100547.34;4162782;28;20073;-61
2023/08/05 06:33:09;;;;;;;8.85;4.53;;;;;;;17.99;68.11;100549.91;4140782;28;20057;-61
2023/08/05 06:35:12;;;;;;;8.50;4.68;;;;;;;18.03;68.41;100548.94;4165246;28;20072;-62
2023/08/05 06:37:15;;;;;;;8.23;5.38;;;;;;;18.08;68.22;100551.53;4163536;28;20490;-60
2023/08/05 06:39:18;;;;;;;7.07;5.18;;;;;;;18.13;67.87;100537.38;4158982;28;20042;-61
2023/08/05 06:41:21;;;;;;;7.85;5.03;;;;;;;18.23;67.92;100553.03;4129101;28;20034;-60
2023/08/05 06:43:23;;;;;;;6.47;4.55;;;;;;;18.29;67.72;100547.66;4146456;28;20483;-62
2023/08/05 06:45:29;;;;;;;7.95;4.38;;;;;;;18.36;67.53;100532.66;4160541;28;20048;-60
2023/08/05 06:47:33;;;;;;;7.30;4.07;;;;;;;18.41;67.62;100539.59;4144312;28;20503;-61
2023/08/05 06:49:36;;;;;;;10.02;4.57;;;;;;;18.48;67.35;100545.59;4163543;28;20040;-61
2023/08/05 06:51:39;;;;;;;11.50;4.70;;;;;;;18.55;66.92;100531.44;4146758;28;20533;-61
2023/08/05 06:53:44;;;;;;;8.93;4.65;;;;;;;18.61;67.13;100533.94;4143874;28;20106;-61
2023/08/05 06:55:47;;;;;;;10.18;5.00;;;;;;;18.69;67.17;100532.94;4165078;28;20498;-61
2023/08/05 06:57:50;;;;;;;6.75;4.38;;;;;;;18.76;66.42;100532.81;4162867;28;20069;-61
2023/08/05 06:59:53;;;;;;;6.93;4.10;;;;;;;18.88;66.80;100529.13;4164692;28;20084;-61
2023/08/05 07:01:56;;;;;;;7.45;4.38;;;;;;;18.95;66.41;100525.47;4161624;28;20132;-61
2023/08/05 07:03:59;;;;;;;11.68;5.00;;;;;;;19.00;65.98;100520.97;4149017;28;20100;-61
2023/08/05 07:06:02;;;;;;;7.72;5.05;;;;;;;19.01;66.10;100525.34;4146846;28;20069;-60
2023/08/05 07:08:05;;;;;;;7.40;4.25;;;;;;;19.04;65.81;100520.91;4146343;28;20070;-61
2023/08/05 07:10:11;;;;;;;8.80;5.28;;;;;;;19.09;65.52;100519.06;4164449;28;20029;-61
2023/08/05 07:12:20;;;;;;;7.40;5.03;;;;;;;19.04;65.03;100523.53;4147858;28;20069;-61
2023/08/05 07:14:23;;;;;;;;;;;;;;;18.89;65.06;100522.94;4165163;28;20480;-61
2023/08/05 07:16:28;;;;;;;9.00;4.63;;;;;;;18.97;65.38;100517.53;4164066;28;19925;-61
2023/08/05 07:18:31;;;;;;;7.60;4.60;;;;;;;19.04;65.66;100500.72;4146669;28;20128;-61
2023/08/05 07:20:34;;;;;;;10.63;5.65;;;;;;;19.14;64.98;100509.28;4163309;28;20057;-61
2023/08/05 07:22:37;;;;;;;7.28;4.28;;;;;;;19.18;65.29;100506.53;4164167;28;20148;-61
2023/08/05 07:24:42;;;;;;;7.40;4.63;;;;;;;19.19;64.89;100510.91;4164284;28;20068;-61
2023/08/05 07:26:44;;;;;;;7.65;4.55;;;;;;;19.27;64.33;100507.25;4129912;28;20435;-61
2023/08/05 07:28:50;;;;;;;8.30;4.85;;;;;;;19.42;63.48;100508.69;4164180;28;20109;-61
2023/08/05 07:31:02;;;;;;;8.77;5.43;;;;;;;19.48;62.77;100506.81;4164402;28;20073;-61
2023/08/05 07:33:07;;;;;;;8.27;5.07;;;;;;;19.50;62.42;100497.06;4164059;28;20044;-61
2023/08/05 07:35:10;;;;;;;11.10;6.03;;;;;;;19.63;61.34;100496.81;4149326;28;20041;-61
2023/08/05 07:37:14;;;;;;;11.45;5.45;;;;;;;19.49;61.95;100498.00;4157956;28;20052;-60
2023/08/05 07:39:17;;;;;;;11.48;6.10;;;;;;;19.71;60.99;100494.84;4146257;28;20235;-61
2023/08/05 07:41:22;;;;;;;6.75;4.55;;;;;;;19.54;62.06;100497.91;4163683;28;20040;-61
2023/08/05 07:43:27;;;;;;;7.03;3.70;;;;;;;19.51;62.31;100497.97;4140285;28;20045;-61
2023/08/05 07:45:32;;;;;;;10.10;4.53;;;;;;;19.57;62.37;100492.56;4158775;28;20504;-60
2023/08/05 07:47:40;;;;;;;11.70;4.85;;;;;;;19.59;62.31;100496.00;4133859;28;20038;-60
2023/08/05 07:49:44;;;;;;;8.40;4.35;;;;;;;19.63;62.57;100491.53;4148071;28;20510;-60
2023/08/05 07:51:50;;;;;;;11.52;5.50;;;;;;;19.69;62.12;100486.13;4162478;28;20439;-60
2023/08/05 07:53:55;;;;;;;8.68;5.10;;;;;;;19.73;62.21;100485.16;4144990;28;20034;-60
2023/08/05 07:55:58;;;;;;;7.07;4.72;;;;;;;19.82;61.92;100479.69;4158439;28;20071;-61
2023/08/05 07:58:02;;;;;;;8.80;5.57;;;;;;;19.96;61.76;100482.00;4163266;28;20128;-60
2023/08/05 08:00:09;;;;;;;9.20;4.45;;;;;;;19.98;61.85;100493.38;4162690;28;20025;-60
2023/08/05 08:02:16;;;;;;;10.32;5.68;;;;;;;19.97;61.65;100496.06;4163151;28;20061;-60
2023/08/05 08:04:18;;;;;;;12.80;6.38;;;;;;;19.92;61.07;100495.28;4163527;28;20513;-60
2023/08/05 08:06:21;;;;;;;11.93;8.95;;;;;;;19.94;60.60;100490.84;4163672;28;20408;-61
2023/08/05 08:08:24;;;;;;;9.10;5.40;;;;;;;19.80;61.58;100499.97;4146043;28;20045;-60
2023/08/05 08:10:27;;;;;;;8.95;5.53;;;;;;;19.86;61.51;100498.97;4163111;28;20128;-61
2023/08/05 08:12:30;;;;;;;18.70;8.98;;;;;;;19.91;61.21;100493.56;4144870;28;20048;-61
2023/08/05 08:14:33;;;;;;;14.35;7.53;;;;;;;20.05;61.38;100499.38;4162601;28;20048;-61
2023/08/05 08:16:36;;;;;;;14.27;9.43;;;;;;;20.12;61.17;100500.09;4176738;22;20037;-63
2023/08/05 08:18:40;;;;;;;15.07;9.10;;;;;;;20.09;61.37;100495.75;4117930;28;20034;-63
2023/08/05 08:20:49;;;;;;;12.57;6.90;;;;;;;20.19;61.04;100497.28;4138405;28;20038;-63
2023/08/05 08:22:52;;;;;;;9.68;6.88;;;;;;;20.28;60.80;100490.91;4150591;28;20511;-63
2023/08/05 08:24:55;;;;;;;10.40;7.65;;;;;;;20.37;60.47;100485.38;4148731;28;20038;-64
2023/08/05 08:26:58;;;;;;;13.68;7.43;;;;;;;20.40;60.38;100487.06;4137855;28;20128;-63
2023/08/05 08:29:01;;;;;;;8.13;4.78;;;;;;;20.42;60.31;100490.53;4153371;28;20457;-64
2023/08/05 08:31:03;;;;;;;7.93;5.32;;;;;;;20.32;60.54;100489.03;4122617;28;20072;-64
2023/08/05 08:33:06;;;;;;;7.32;3.78;;;;;;;20.22;60.34;100491.03;4112983;28;20054;-64
2023/08/05 08:35:11;;;;;;;11.15;5.38;;;;;;;20.24;60.31;100486.59;4148038;28;20036;-64
2023/08/05 08:37:16;;;;;;;9.15;4.85;;;;;;;20.46;59.59;100483.38;4140813;28;20050;-64
2023/08/05 08:39:19;;;;;;;7.97;4.00;;;;;;;20.63;59.04;100485.56;4112388;28;20038;-65
2023/08/05 08:41:24;;;;;;;8.70;3.97;;;;;;;20.69;59.31;100477.50;4141815;28;20052;-63
2023/08/05 08:43:28;;;;;;;8.02;4.20;;;;;;;20.56;59.26;100475.19;4145664;28;20547;-65
2023/08/05 08:45:34;;;;;;;6.90;3.13;;;;;;;20.62;59.71;100473.25;4145032;28;20388;-65
2023/08/05 08:47:38;;;;;;;14.60;4.55;;;;;;;20.79;59.34;100468.41;4141688;28;20044;-63
2023/08/05 08:49:41;;;;;;;;;;;;;;;20.82;58.96;100468.34;4159934;28;20037;-65
2023/08/05 08:51:48;;;;;;;7.38;3.78;;;;;;;20.96;58.70;100467.09;4146296;28;20259;-66
2023/08/05 08:53:52;;;;;;;8.23;4.32;;;;;;;21.15;58.44;100467.44;4150365;28;20041;-65
2023/08/05 08:55:58;;;;;;;8.05;3.85;;;;;;;21.30;57.84;100468.72;4139974;28;20073;-65
2023/08/05 08:58:01;;;;;;;8.63;4.35;;;;;;;21.48;56.88;100460.25;4144508;28;20053;-66
2023/08/05 09:00:05;;;;;;;6.35;3.47;;;;;;;21.32;57.61;100459.84;4147084;28;20466;-62
2023/08/05 09:02:12;;;;;;;6.57;2.92;;;;;;;21.43;57.71;100464.81;4143116;28;20034;-62
2023/08/05 09:04:16;;;;;;;4.60;2.60;;;;;;;21.38;57.43;100464.09;4144824;28;20038;-67
2023/08/05 09:06:23;;;;;;;4.97;3.05;;;;;;;21.33;56.62;100461.56;4144516;28;20108;-67
2023/08/05 09:08:37;;;;;;;4.05;2.05;;;;;;;21.47;57.20;100450.56;4130528;28;20093;-67
2023/08/05 09:10:40;;;;;;;5.18;2.33;;;;;;;21.60;56.86;100438.72;4112979;28;20089;-68
2023/08/05 09:12:43;;;;;;;7.13;2.95;;;;;;;21.72;56.79;100433.94;4146572;28;20049;-63
2023/08/05 09:14:53;;;;;;;7.90;2.72;;;;;;;21.75;56.24;100434.69;4147869;28;20038;-65
2023/08/05 09:16:58;;;;;;;5.97;3.05;;;;;;;21.70;55.92;100431.34;4143087;28;20063;-71
2023/08/05 09:19:02;;;;;;;7.25;2.90;;;;;;;21.86;55.88;100430.84;4117045;28;20440;-65
2023/08/05 09:21:05;;;;;;;6.15;3.08;;;;;;;21.89;56.03;100428.97;4147198;28;20049;-64
2023/08/05 09:23:09;;;;;;;8.20;2.78;;;;;;;22.02;55.29;100426.78;4149635;28;20046;-66
2023/08/05 09:25:13;;;;;;;4.25;2.22;;;;;;;22.11;55.38;100428.25;4155102;28;20041;-65
2023/08/05 09:27:16;;;;;;;5.68;2.80;;;;;;;22.28;53.93;100439.13;4128424;28;20052;-66
2023/08/05 09:29:21;;;;;;;5.15;2.40;;;;;;;22.33;54.30;100433.69;4131296;28;20065;-65
2023/08/05 09:31:24;;;;;;;3.40;2.10;;;;;;;22.41;53.95;100426.31;4150091;28;20129;-65
2023/08/05 09:33:28;;;;;;;3.20;1.95;;;;;;;22.41;52.94;100431.63;4150532;28;20072;-65
2023/08/05 09:35:31;;;;;;;4.13;2.00;;;;;;;22.51;53.52;100426.88;4151214;28;20096;-64